Time;durP1;ratioP1;P1;durP2;ratioP2;P2;SDS_P1;SDS_P2;PMS_P1;PMS_P2;Temp;Humidity;BMP_temperature;BMP_pressure;BME280_temperature;BME280_humidity;BME280_pressure;Samples;Min_cycle;Max_cycle;Signal;HPM_P1;HPM_P2
2024/01/07 00:02:13;;;;;;;1999.90;999.90;;;2.80;99.90;;;;;;5015174;28;20672;-73
2024/01/07 00:04:40;;;;;;;1999.90;999.90;;;2.30;99.90;;;;;;5014803;28;20215;-73
2024/01/07 00:07:06;;;;;;;1999.90;999.90;;;2.30;99.90;;;;;;5015139;28;20169;-73
2024/01/07 00:09:32;;;;;;;1999.90;999.90;;;2.30;99.90;;;;;;5015114;28;20176;-73
2024/01/07 00:11:57;;;;;;;1999.90;999.90;;;2.50;99.90;;;;;;5014858;28;20227;-73
2024/01/07 00:14:23;;;;;;;1999.90;999.90;;;;;;;;;;5014749;28;20571;-73
2024/01/07 00:16:49;;;;;;;1999.90;999.90;;;2.40;99.90;;;;;;5014902;28;20165;-73
2024/01/07 00:19:14;;;;;;;1999.90;999.90;;;2.40;99.90;;;;;;5014874;28;20408;-73
2024/01/07 00:21:40;;;;;;;1999.90;999.90;;;2.30;99.90;;;;;;5014812;28;20176;-73
2024/01/07 00:24:06;;;;;;;1999.90;999.90;;;2.30;99.90;;;;;;5014518;28;20251;-73
2024/01/07 00:26:31;;;;;;;1999.90;999.90;;;2.30;99.90;;;;;;5014523;28;20278;-73
2024/01/07 00:28:57;;;;;;;1999.90;999.90;;;2.30;99.90;;;;;;5014758;28;20942;-74
2024/01/07 00:31:22;;;;;;;1999.90;999.90;;;2.40;99.90;;;;;;5014702;28;20179;-73
2024/01/07 00:33:48;;;;;;;1999.90;999.90;;;2.40;99.90;;;;;;5014321;28;20193;-73
2024/01/07 00:36:13;;;;;;;1999.90;999.90;;;2.40;99.90;;;;;;5014522;28;20548;-74
2024/01/07 00:38:39;;;;;;;1999.90;999.90;;;2.50;99.90;;;;;;5014479;28;20177;-73
2024/01/07 00:41:05;;;;;;;1999.90;999.90;;;2.40;99.90;;;;;;5014094;28;20268;-73
2024/01/07 00:43:30;;;;;;;1999.90;999.90;;;2.40;99.90;;;;;;5014179;28;20197;-73
2024/01/07 00:45:56;;;;;;;1999.90;999.90;;;2.50;99.90;;;;;;5014257;28;20353;-73
2024/01/07 00:48:21;;;;;;;1999.90;999.90;;;2.40;99.90;;;;;;5014448;28;20165;-73
2024/01/07 00:50:47;;;;;;;1999.90;999.90;;;2.40;99.90;;;;;;5014305;28;20629;-73
2024/01/07 00:53:12;;;;;;;1999.90;999.90;;;2.40;99.90;;;;;;5014039;28;20185;-73
2024/01/07 00:55:38;;;;;;;1999.90;999.90;;;2.40;99.90;;;;;;5014125;28;20173;-73
2024/01/07 00:58:04;;;;;;;1999.90;999.90;;;2.60;99.90;;;;;;5014113;28;20180;-73
2024/01/07 01:00:29;;;;;;;1999.90;999.90;;;2.50;99.90;;;;;;5014124;28;20226;-74
2024/01/07 01:02:55;;;;;;;1999.90;999.90;;;2.40;99.90;;;;;;5013782;28;20200;-73
2024/01/07 01:05:21;;;;;;;1999.90;999.90;;;2.30;99.90;;;;;;5013982;28;20201;-73
2024/01/07 01:07:46;;;;;;;1999.90;999.90;;;2.40;99.90;;;;;;5014000;28;20748;-75
2024/01/07 01:10:14;;;;;;;1999.90;999.90;;;2.40;99.90;;;;;;5013860;28;20219;-75
2024/01/07 01:12:40;;;;;;;1999.90;999.90;;;2.40;99.90;;;;;;5013630;28;20185;-75
2024/01/07 01:15:06;;;;;;;1999.90;999.90;;;2.40;99.90;;;;;;5013771;28;20701;-74
2024/01/07 01:17:31;;;;;;;1999.90;999.90;;;2.30;99.90;;;;;;5013779;28;20195;-73
2024/01/07 01:19:57;;;;;;;1999.90;999.90;;;2.40;99.90;;;;;;5013736;28;20412;-75
2024/01/07 01:22:22;;;;;;;1999.90;999.90;;;2.40;99.90;;;;;;5013394;28;20750;-73
2024/01/07 01:24:48;;;;;;;1999.90;999.90;;;;;;;;;;5013582;28;20285;-74
2024/01/07 01:27:15;;;;;;;1999.90;999.90;;;2.50;99.90;;;;;;5013839;28;20197;-74
2024/01/07 01:29:41;;;;;;;1999.90;999.90;;;2.50;99.90;;;;;;5013595;28;20513;-75
2024/01/07 01:32:06;;;;;;;1999.90;999.90;;;2.50;99.90;;;;;;5013417;28;20207;-74
2024/01/07 01:34:32;;;;;;;1999.90;999.90;;;2.50;99.90;;;;;;5013200;28;20412;-74
2024/01/07 01:36:59;;;;;;;1999.90;999.90;;;2.50;99.90;;;;;;5013478;28;20734;-74
2024/01/07 01:39:25;;;;;;;1999.90;999.90;;;2.60;99.90;;;;;;5013402;28;20169;-74
2024/01/07 01:41:51;;;;;;;1999.90;999.90;;;2.60;99.90;;;;;;5013294;28;20511;-74
2024/01/07 01:44:16;;;;;;;1999.90;999.90;;;2.60;99.90;;;;;;5013182;28;20219;-74
2024/01/07 01:46:44;;;;;;;1999.90;999.90;;;2.60;99.90;;;;;;5013173;28;20455;-73
2024/01/07 01:49:10;;;;;;;1999.90;999.90;;;2.50;99.90;;;;;;5013223;28;20192;-73
2024/01/07 01:51:36;;;;;;;1999.90;999.90;;;2.40;99.90;;;;;;5012925;28;20173;-74
2024/01/07 01:54:02;;;;;;;1999.90;999.90;;;2.40;99.90;;;;;;5012326;28;20669;-74
2024/01/07 01:56:29;;;;;;;1999.90;999.90;;;2.40;99.90;;;;;;5012987;28;20200;-74
2024/01/07 01:58:55;;;;;;;1999.90;999.90;;;2.40;99.90;;;;;;5013025;28;20602;-74
2024/01/07 02:01:23;;;;;;;1999.90;999.90;;;2.40;99.90;;;;;;5012981;28;20671;-74
2024/01/07 02:03:48;;;;;;;1999.90;999.90;;;2.50;99.90;;;;;;5012630;28;20214;-74
2024/01/07 02:06:15;;;;;;;1999.90;999.90;;;2.50;99.90;;;;;;5012860;28;20613;-74
2024/01/07 02:08:41;;;;;;;1999.90;999.90;;;2.40;99.90;;;;;;5012801;28;20172;-74
2024/01/07 02:11:17;;;;;;;1999.90;999.90;;;2.50;99.90;;;;;;5012805;28;20185;-74
2024/01/07 02:13:43;;;;;;;1999.90;999.90;;;2.40;99.90;;;;;;5012473;28;20234;-74
2024/01/07 02:16:09;;;;;;;1999.90;999.90;;;2.50;99.90;;;;;;5012677;28;20655;-73
2024/01/07 02:18:35;;;;;;;1999.90;999.90;;;2.50;99.90;;;;;;5012749;28;20412;-74
2024/01/07 02:21:00;;;;;;;1999.90;999.90;;;2.50;99.90;;;;;;5012659;28;20172;-74
2024/01/07 02:23:26;;;;;;;1999.90;999.90;;;2.50;99.90;;;;;;5012204;28;20212;-74
2024/01/07 02:25:51;;;;;;;1999.90;999.90;;;2.50;99.90;;;;;;5012407;28;20244;-74
2024/01/07 02:28:17;;;;;;;1999.90;999.90;;;2.50;99.90;;;;;;5012572;28;20173;-74
2024/01/07 02:30:42;;;;;;;1999.90;999.90;;;2.50;99.90;;;;;;5012626;28;20196;-74
2024/01/07 02:33:08;;;;;;;1999.90;999.90;;;2.30;99.90;;;;;;5012178;28;20185;-74
2024/01/07 02:35:34;;;;;;;1999.90;999.90;;;2.50;99.90;;;;;;5012424;28;20173;-74
2024/01/07 02:38:00;;;;;;;1999.90;999.90;;;2.50;99.90;;;;;;5012221;28;20414;-74
2024/01/07 02:40:25;;;;;;;1999.90;999.90;;;2.50;99.90;;;;;;5012414;28;20220;-74
2024/01/07 02:42:51;;;;;;;1999.90;999.90;;;2.60;99.90;;;;;;5012059;28;20231;-75
2024/01/07 02:45:16;;;;;;;1999.90;999.90;;;2.60;99.90;;;;;;5012233;28;20193;-74
2024/01/07 02:47:42;;;;;;;1999.90;999.90;;;2.60;99.90;;;;;;5012346;28;20641;-74
2024/01/07 02:50:08;;;;;;;1999.90;999.90;;;2.60;99.90;;;;;;5012303;28;20161;-74
2024/01/07 02:52:33;;;;;;;1999.90;999.90;;;2.60;99.90;;;;;;5011682;28;20196;-74
2024/01/07 02:55:01;;;;;;;1999.90;999.90;;;2.60;99.90;;;;;;5012150;28;20164;-75
2024/01/07 02:57:27;;;;;;;1999.90;999.90;;;2.60;99.90;;;;;;5012301;28;20715;-74
2024/01/07 02:59:52;;;;;;;1999.90;999.90;;;2.70;99.90;;;;;;5012162;28;20260;-74
2024/01/07 03:02:18;;;;;;;1999.90;999.90;;;2.70;99.90;;;;;;5011993;28;20287;-74
2024/01/07 03:04:44;;;;;;;1999.90;999.90;;;2.80;99.90;;;;;;5011638;28;20220;-74
2024/01/07 03:07:09;;;;;;;1999.90;999.90;;;2.70;99.90;;;;;;5012058;28;20219;-74
2024/01/07 03:09:35;;;;;;;1999.90;999.90;;;2.80;99.90;;;;;;5012084;28;20165;-74
2024/01/07 03:12:00;;;;;;;1999.90;999.90;;;3.00;99.90;;;;;;5011903;28;20664;-74
2024/01/07 03:14:26;;;;;;;1999.90;999.90;;;2.90;99.90;;;;;;5011739;28;20180;-74
2024/01/07 03:16:52;;;;;;;1999.90;999.90;;;2.90;99.90;;;;;;5011619;28;20599;-74
2024/01/07 03:19:18;;;;;;;1999.90;999.90;;;2.90;99.90;;;;;;5011884;28;20177;-74
2024/01/07 03:21:43;;;;;;;1999.90;999.90;;;3.00;99.90;;;;;;5011729;28;20180;-75
2024/01/07 03:24:10;;;;;;;1999.90;999.90;;;3.00;99.90;;;;;;5011678;28;20227;-74
2024/01/07 03:26:36;;;;;;;1999.90;999.90;;;3.00;99.90;;;;;;5011791;28;20197;-75
2024/01/07 03:29:02;;;;;;;1999.90;999.90;;;4.50;99.90;;;;;;5011838;28;20176;-74
2024/01/07 03:31:28;;;;;;;1999.90;999.90;;;3.00;99.90;;;;;;5011877;28;20556;-74
2024/01/07 03:33:54;;;;;;;1999.90;999.90;;;3.00;99.90;;;;;;5011447;28;20416;-75
2024/01/07 03:36:20;;;;;;;1999.90;999.90;;;3.10;99.90;;;;;;5011708;28;20169;-73
2024/01/07 03:38:45;;;;;;;1999.90;999.90;;;3.00;99.90;;;;;;5011807;28;20173;-73
2024/01/07 03:41:19;;;;;;;1999.90;999.90;;;3.00;99.90;;;;;;5011803;28;20165;-73
2024/01/07 03:43:47;;;;;;;1999.90;999.90;;;3.00;99.90;;;;;;5011532;28;20225;-73
2024/01/07 03:46:13;;;;;;;1999.90;999.90;;;3.00;99.90;;;;;;5011596;28;20201;-73
2024/01/07 03:48:38;;;;;;;1999.90;999.90;;;3.00;99.90;;;;;;5011685;28;20197;-74
2024/01/07 03:51:04;;;;;;;1999.90;999.90;;;3.10;99.90;;;;;;5011811;28;20404;-73
2024/01/07 03:53:30;;;;;;;1999.90;999.90;;;3.10;99.90;;;;;;5011498;28;20271;-73
2024/01/07 03:55:55;;;;;;;1999.90;999.90;;;3.10;99.90;;;;;;5011610;28;20226;-73
2024/01/07 03:58:21;;;;;;;1999.90;999.90;;;;;;;;;;5011654;28;20184;-73
2024/01/07 04:00:47;;;;;;;1999.90;999.90;;;3.10;99.90;;;;;;5011571;28;20177;-73
2024/01/07 04:03:12;;;;;;;1999.90;999.90;;;3.10;99.90;;;;;;5011193;28;20423;-75
2024/01/07 04:05:38;;;;;;;1999.90;999.90;;;3.20;99.90;;;;;;5011400;28;20208;-73
2024/01/07 04:08:04;;;;;;;1999.90;999.90;;;3.20;99.90;;;;;;5011517;28;20165;-73
2024/01/07 04:10:29;;;;;;;1999.90;999.90;;;3.20;99.90;;;;;;5011468;28;20193;-73
2024/01/07 04:12:55;;;;;;;1999.90;999.90;;;3.30;99.90;;;;;;5011151;28;20188;-73
2024/01/07 04:15:21;;;;;;;1999.90;999.90;;;3.30;99.90;;;;;;5011963;28;20212;-74
2024/01/07 04:17:46;;;;;;;1999.90;999.90;;;3.30;99.90;;;;;;5014953;28;20403;-73
2024/01/07 04:20:15;;;;;;;1999.90;999.90;;;3.30;99.90;;;;;;5014879;28;20665;-73
2024/01/07 04:22:41;;;;;;;1999.90;999.90;;;3.30;99.90;;;;;;5014419;28;20247;-74
2024/01/07 04:25:10;;;;;;;1999.90;999.90;;;3.30;99.90;;;;;;5014692;28;20491;-73
2024/01/07 04:27:39;;;;;;;1999.90;999.90;;;3.30;99.90;;;;;;5014780;28;20181;-73
2024/01/07 04:30:06;;;;;;;1999.90;999.90;;;3.30;99.90;;;;;;5014705;28;20774;-73
2024/01/07 04:32:32;;;;;;;1999.90;999.90;;;3.30;99.90;;;;;;5014326;28;20434;-73
2024/01/07 04:34:57;;;;;;;1999.90;999.90;;;3.20;99.90;;;;;;5014651;28;20408;-74
2024/01/07 04:37:24;;;;;;;1999.90;999.90;;;3.20;99.90;;;;;;5014595;28;20408;-73
2024/01/07 04:39:49;;;;;;;1999.90;999.90;;;3.10;99.90;;;;;;5014796;28;20179;-73
2024/01/07 04:42:16;;;;;;;1999.90;999.90;;;3.00;99.90;;;;;;5014467;28;20193;-73
2024/01/07 04:44:42;;;;;;;1999.90;999.90;;;3.10;99.90;;;;;;5014119;28;20268;-74
2024/01/07 04:47:43;;;;;;;1999.90;999.90;;;3.00;99.90;;;;;;5014418;28;20252;-74
2024/01/07 04:50:08;;;;;;;1999.90;999.90;;;3.10;99.90;;;;;;4953649;29;20187;-75
2024/01/07 04:52:34;;;;;;;1999.90;999.90;;;3.10;99.90;;;;;;5001467;28;20204;-73
2024/01/07 04:54:59;;;;;;;1999.90;999.90;;;3.20;99.90;;;;;;5014189;28;20168;-74
2024/01/07 04:57:25;;;;;;;1999.90;999.90;;;3.20;99.90;;;;;;5014189;28;20176;-73
2024/01/07 04:59:52;;;;;;;1999.90;999.90;;;3.20;99.90;;;;;;5014225;28;20201;-73
2024/01/07 05:02:18;;;;;;;1999.90;999.90;;;3.10;99.90;;;;;;5014005;28;20827;-74
2024/01/07 05:04:43;;;;;;;1999.90;999.90;;;3.00;99.90;;;;;;5013749;28;20396;-73
2024/01/07 05:07:09;;;;;;;1999.90;999.90;;;3.10;99.90;;;;;;5014067;28;20176;-73
2024/01/07 05:09:34;;;;;;;1999.90;999.90;;;3.10;99.90;;;;;;5013846;28;20248;-73
2024/01/07 05:12:01;;;;;;;1999.90;999.90;;;3.10;99.90;;;;;;5013840;28;20252;-73
2024/01/07 05:14:27;;;;;;;1999.90;999.90;;;3.00;99.90;;;;;;5013643;28;20215;-73
2024/01/07 05:16:54;;;;;;;1999.90;999.90;;;3.00;99.90;;;;;;5013840;28;20572;-73
2024/01/07 05:19:20;;;;;;;1999.90;999.90;;;3.00;99.90;;;;;;5013762;28;20193;-73
2024/01/07 05:21:45;;;;;;;1999.90;999.90;;;3.40;99.90;;;;;;5013570;28;21103;-73
2024/01/07 05:24:11;;;;;;;1999.90;999.90;;;3.00;99.90;;;;;;5013481;28;20641;-73
2024/01/07 05:26:41;;;;;;;1999.90;999.90;;;3.00;99.90;;;;;;5012689;28;20288;-74
2024/01/07 05:29:07;;;;;;;1999.90;999.90;;;3.00;99.90;;;;;;5013525;28;20223;-75
2024/01/07 05:31:32;;;;;;;1999.90;999.90;;;3.00;99.90;;;;;;5013591;28;20169;-75
2024/01/07 05:33:58;;;;;;;1999.90;999.90;;;3.10;99.90;;;;;;5013142;28;20212;-74
2024/01/07 05:36:24;;;;;;;1999.90;999.90;;;3.10;99.90;;;;;;5013512;28;20192;-75
2024/01/07 05:38:49;;;;;;;1999.90;999.90;;;3.10;99.90;;;;;;5013472;28;20547;-75
2024/01/07 05:41:15;;;;;;;1999.90;999.90;;;;;;;;;;5013376;28;20180;-75
2024/01/07 05:43:41;;;;;;;1999.90;999.90;;;3.10;99.90;;;;;;5013014;28;20193;-72
2024/01/07 05:46:06;;;;;;;1999.90;999.90;;;3.10;99.90;;;;;;5013189;28;20451;-74
2024/01/07 05:48:45;;;;;;;1999.90;999.90;;;3.10;99.90;;;;;;5013288;28;20173;-73
2024/01/07 05:51:11;;;;;;;1999.90;999.90;;;3.00;99.90;;;;;;5013123;28;20218;-73
2024/01/07 05:53:37;;;;;;;1999.90;999.90;;;2.90;99.90;;;;;;5012818;28;20197;-73
2024/01/07 05:56:03;;;;;;;1999.90;999.90;;;2.90;99.90;;;;;;5013083;28;20444;-74
2024/01/07 05:58:29;;;;;;;1999.90;999.90;;;2.90;99.90;;;;;;5013084;28;20520;-73
2024/01/07 06:00:55;;;;;;;1999.90;999.90;;;2.90;99.90;;;;;;5013104;28;20419;-74
2024/01/07 06:03:20;;;;;;;1999.90;999.90;;;3.00;99.90;;;;;;5012627;28;20196;-73
2024/01/07 06:05:46;;;;;;;1999.90;999.90;;;2.90;99.90;;;;;;5012862;28;20781;-72
2024/01/07 06:08:12;;;;;;;1999.90;999.90;;;2.90;99.90;;;;;;5012838;28;20509;-73
2024/01/07 06:10:39;;;;;;;1999.90;999.90;;;2.80;99.90;;;;;;5012903;28;20177;-73
2024/01/07 06:13:04;;;;;;;1999.90;999.90;;;2.80;99.90;;;;;;5012548;28;20219;-73
2024/01/07 06:15:30;;;;;;;1999.90;999.90;;;2.70;99.90;;;;;;5012760;28;20173;-73
2024/01/07 06:17:56;;;;;;;1999.90;999.90;;;2.70;99.90;;;;;;5012681;28;20173;-73
2024/01/07 06:20:21;;;;;;;1999.90;999.90;;;2.60;99.90;;;;;;5012730;28;20173;-73
2024/01/07 06:22:47;;;;;;;1999.90;999.90;;;;;;;;;;5012174;28;20208;-74
2024/01/07 06:25:13;;;;;;;1999.90;999.90;;;2.70;99.90;;;;;;5012479;28;20196;-74
2024/01/07 06:27:39;;;;;;;1999.90;999.90;;;2.70;99.90;;;;;;5012448;28;20173;-73
2024/01/07 06:30:06;;;;;;;1999.90;999.90;;;2.70;99.90;;;;;;5012740;28;20169;-72
2024/01/07 06:32:32;;;;;;;1999.90;999.90;;;2.70;99.90;;;;;;5012182;28;20657;-73
2024/01/07 06:34:58;;;;;;;1999.90;999.90;;;2.70;99.90;;;;;;5012484;28;20636;-74
2024/01/07 06:37:24;;;;;;;1999.90;999.90;;;2.70;99.90;;;;;;5012200;28;20191;-73
2024/01/07 06:39:49;;;;;;;1999.90;999.90;;;2.60;99.90;;;;;;5012130;28;20244;-73
2024/01/07 06:42:15;;;;;;;1999.90;999.90;;;1.80;99.90;;;;;;5012277;28;20189;-73
2024/01/07 06:44:40;;;;;;;1999.90;999.90;;;2.60;99.90;;;;;;5012301;28;20166;-73
2024/01/07 06:47:06;;;;;;;1999.90;999.90;;;2.60;99.90;;;;;;5012290;28;20260;-73
2024/01/07 06:49:31;;;;;;;1999.90;999.90;;;2.50;99.90;;;;;;5012083;28;20621;-73
2024/01/07 06:51:57;;;;;;;1999.90;999.90;;;2.50;99.90;;;;;;5012185;28;20173;-72
2024/01/07 06:54:23;;;;;;;1999.90;999.90;;;2.50;99.90;;;;;;5012001;28;20174;-73
2024/01/07 06:56:48;;;;;;;1999.90;999.90;;;2.50;99.90;;;;;;5011575;28;20718;-73
2024/01/07 06:59:14;;;;;;;1999.90;999.90;;;2.50;99.90;;;;;;5011949;28;20312;-73
2024/01/07 07:01:40;;;;;;;1999.90;999.90;;;2.40;99.90;;;;;;5012042;28;20173;-73
2024/01/07 07:04:05;;;;;;;1999.90;999.90;;;2.40;99.90;;;;;;5011810;28;20950;-73
2024/01/07 07:06:31;;;;;;;1999.90;999.90;;;2.40;99.90;;;;;;5011932;28;20541;-73
2024/01/07 07:08:56;;;;;;;1999.90;999.90;;;2.40;99.90;;;;;;5012124;28;20216;-73
2024/01/07 07:11:22;;;;;;;1999.90;999.90;;;2.50;99.90;;;;;;5011663;28;20203;-73
2024/01/07 07:13:47;;;;;;;1999.90;999.90;;;2.50;99.90;;;;;;5011464;28;20193;-73
2024/01/07 07:16:13;;;;;;;1999.90;999.90;;;2.50;99.90;;;;;;5011814;28;20173;-73
2024/01/07 07:18:39;;;;;;;1999.90;999.90;;;2.50;99.90;;;;;;5011969;28;20172;-73
2024/01/07 07:21:04;;;;;;;1999.90;999.90;;;2.50;99.90;;;;;;5011903;28;20193;-73
2024/01/07 07:23:30;;;;;;;1999.90;999.90;;;2.50;99.90;;;;;;5011557;28;20217;-74
2024/01/07 07:25:56;;;;;;;1999.90;999.90;;;2.50;99.90;;;;;;5011975;28;20215;-73
2024/01/07 07:28:22;;;;;;;1999.90;999.90;;;2.50;99.90;;;;;;5011917;28;20173;-73
2024/01/07 07:30:47;;;;;;;1999.90;999.90;;;2.60;99.90;;;;;;5011841;28;20216;-73
2024/01/07 07:33:13;;;;;;;1999.90;999.90;;;2.50;99.90;;;;;;5011509;28;20953;-72
2024/01/07 07:35:41;;;;;;;1999.90;999.90;;;2.60;99.90;;;;;;5011650;28;20181;-73
2024/01/07 07:38:07;;;;;;;1999.90;999.90;;;2.60;99.90;;;;;;5012046;28;20771;-73
2024/01/07 07:40:32;;;;;;;1999.90;999.90;;;2.70;99.90;;;;;;5011804;28;20173;-74
2024/01/07 07:42:58;;;;;;;1999.90;999.90;;;2.60;99.90;;;;;;5011479;28;20204;-72
2024/01/07 07:45:24;;;;;;;1999.90;999.90;;;2.60;99.90;;;;;;5011617;28;20241;-73
2024/01/07 07:47:49;;;;;;;1999.90;999.90;;;1.80;99.90;;;;;;5011725;28;20161;-73
2024/01/07 07:50:15;;;;;;;1999.90;999.90;;;2.50;99.90;;;;;;5012080;28;20584;-73
2024/01/07 07:52:43;;;;;;;1999.90;999.90;;;2.50;99.90;;;;;;5015173;28;20193;-72
2024/01/07 07:55:10;;;;;;;1999.90;999.90;;;2.50;99.90;;;;;;5015475;28;20594;-73
2024/01/07 07:57:36;;;;;;;1999.90;999.90;;;2.50;99.90;;;;;;5015363;28;20539;-75
2024/01/07 08:00:02;;;;;;;1999.90;999.90;;;;;;;;;;5015330;28;20181;-75
2024/01/07 08:02:27;;;;;;;1999.90;999.90;;;2.50;99.90;;;;;;5014879;28;20473;-75
2024/01/07 08:04:53;;;;;;;1999.90;999.90;;;2.50;99.90;;;;;;5015033;28;20177;-74
2024/01/07 08:07:18;;;;;;;1999.90;999.90;;;2.60;99.90;;;;;;5015145;28;20161;-75
2024/01/07 08:09:44;;;;;;;1999.90;999.90;;;2.60;99.90;;;;;;5015251;28;20180;-74
2024/01/07 08:12:11;;;;;;;1999.90;999.90;;;2.60;99.90;;;;;;5014984;28;20533;-74
2024/01/07 08:14:40;;;;;;;1999.90;999.90;;;;;;;;;;5014830;28;20220;-74
2024/01/07 08:17:07;;;;;;;1999.90;999.90;;;2.60;99.90;;;;;;5014941;28;20165;-75
2024/01/07 08:19:33;;;;;;;1999.90;999.90;;;;;;;;;;5014880;28;20533;-74
2024/01/07 08:21:59;;;;;;;1999.90;999.90;;;2.60;99.90;;;;;;5014699;28;20667;-74
2024/01/07 08:24:24;;;;;;;1999.90;999.90;;;2.60;99.90;;;;;;5014829;28;20185;-74
2024/01/07 08:26:50;;;;;;;1999.90;999.90;;;2.60;99.90;;;;;;5014806;28;20201;-74
2024/01/07 08:29:16;;;;;;;1999.90;999.90;;;2.50;99.90;;;;;;5014816;28;20184;-74
2024/01/07 08:31:42;;;;;;;1999.90;999.90;;;2.50;99.90;;;;;;5014704;28;20161;-73
2024/01/07 08:34:08;;;;;;;1999.90;999.90;;;2.40;99.90;;;;;;5014335;28;20184;-73
2024/01/07 08:36:33;;;;;;;1999.90;999.90;;;2.50;99.90;;;;;;5014650;28;20268;-73
2024/01/07 08:39:00;;;;;;;1999.90;999.90;;;2.50;99.90;;;;;;5014714;28;20716;-74
2024/01/07 08:41:25;;;;;;;1999.90;999.90;;;2.50;99.90;;;;;;5014561;28;20165;-73
2024/01/07 08:43:51;;;;;;;1999.90;999.90;;;2.40;99.90;;;;;;5013611;28;20307;-74
2024/01/07 08:46:17;;;;;;;1999.90;999.90;;;2.40;99.90;;;;;;5014180;28;20196;-74
2024/01/07 08:48:42;;;;;;;1999.90;999.90;;;2.40;99.90;;;;;;5014347;28;20173;-74
2024/01/07 08:51:08;;;;;;;1999.90;999.90;;;2.40;99.90;;;;;;5014351;28;20165;-73
2024/01/07 08:53:33;;;;;;;1999.90;999.90;;;2.40;99.90;;;;;;5014045;28;20219;-74
2024/01/07 08:55:59;;;;;;;1999.90;999.90;;;2.30;99.90;;;;;;5014290;28;20169;-74
2024/01/07 08:58:25;;;;;;;1999.90;999.90;;;2.30;99.90;;;;;;5014300;28;20580;-75
2024/01/07 09:00:51;;;;;;;1999.90;999.90;;;2.30;99.90;;;;;;5014033;28;20173;-74
2024/01/07 09:03:17;;;;;;;1999.90;999.90;;;2.30;99.90;;;;;;5013632;28;20427;-74
2024/01/07 09:05:43;;;;;;;1999.90;999.90;;;2.40;99.90;;;;;;5014014;28;20680;-74
2024/01/07 09:08:11;;;;;;;1999.90;999.90;;;2.40;99.90;;;;;;5014054;28;20176;-73
2024/01/07 09:10:36;;;;;;;1999.90;999.90;;;2.30;99.90;;;;;;5013916;28;20204;-73
2024/01/07 09:13:04;;;;;;;1999.90;999.90;;;2.30;99.90;;;;;;5013239;28;20275;-73
2024/01/07 09:15:29;;;;;;;1999.90;999.90;;;2.20;99.90;;;;;;5013678;28;20599;-73
2024/01/07 09:17:55;;;;;;;1999.90;999.90;;;2.20;99.90;;;;;;5013744;28;20173;-73
2024/01/07 09:20:20;;;;;;;1999.90;999.90;;;2.10;99.90;;;;;;5013896;28;20165;-73
2024/01/07 09:22:46;;;;;;;1999.90;999.90;;;2.20;99.90;;;;;;5013428;28;20219;-73
2024/01/07 09:25:11;;;;;;;1999.90;999.90;;;2.00;99.90;;;;;;5013643;28;20195;-72
2024/01/07 09:27:37;;;;;;;1999.90;999.90;;;2.10;99.90;;;;;;5013364;28;20177;-73
2024/01/07 09:30:03;;;;;;;1999.90;999.90;;;2.10;99.90;;;;;;5013458;28;20173;-73
2024/01/07 09:32:29;;;;;;;1999.90;999.90;;;2.10;99.90;;;;;;5013226;28;20185;-73
2024/01/07 09:34:54;;;;;;;1999.90;999.90;;;2.10;99.90;;;;;;5013548;28;20177;-74
2024/01/07 09:37:20;;;;;;;1999.90;999.90;;;2.20;99.90;;;;;;5013569;28;20165;-73
2024/01/07 09:39:45;;;;;;;1999.90;999.90;;;2.20;99.90;;;;;;5013539;28;20173;-73
2024/01/07 09:42:16;;;;;;;1999.90;999.90;;;2.20;99.90;;;;;;5013452;28;20330;-73
2024/01/07 09:44:42;;;;;;;1999.90;999.90;;;2.30;99.90;;;;;;5013075;28;20582;-73
2024/01/07 09:47:12;;;;;;;1999.90;999.90;;;2.30;99.90;;;;;;5013341;28;20200;-73
2024/01/07 09:49:40;;;;;;;1999.90;999.90;;;2.40;99.90;;;;;;5013336;28;20185;-73
2024/01/07 09:52:07;;;;;;;1999.90;999.90;;;2.30;99.90;;;;;;5013152;28;20193;-73
2024/01/07 09:54:33;;;;;;;1999.90;999.90;;;2.30;99.90;;;;;;5013026;28;20227;-73
2024/01/07 09:57:03;;;;;;;1999.90;999.90;;;2.20;99.90;;;;;;5013138;28;20266;-74
2024/01/07 09:59:29;;;;;;;1999.90;999.90;;;2.30;99.90;;;;;;5013024;28;20172;-73
2024/01/07 10:01:55;;;;;;;1999.90;999.90;;;2.20;99.90;;;;;;5013249;28;20243;-73
2024/01/07 10:04:21;;;;;;;1999.90;999.90;;;2.20;99.90;;;;;;5012819;28;20598;-73
2024/01/07 10:06:48;;;;;;;1999.90;999.90;;;2.20;99.90;;;;;;5012943;28;20978;-74
2024/01/07 10:09:16;;;;;;;1999.90;999.90;;;2.20;99.90;;;;;;5012968;28;20173;-73
2024/01/07 10:11:43;;;;;;;1999.90;999.90;;;2.30;99.90;;;;;;5012998;28;20620;-73
2024/01/07 10:14:09;;;;;;;1999.90;999.90;;;2.20;99.90;;;;;;5012042;28;20264;-73
2024/01/07 10:16:35;;;;;;;1999.90;999.90;;;2.20;99.90;;;;;;5012985;28;20176;-73
2024/01/07 10:19:01;;;;;;;1999.90;999.90;;;2.20;99.90;;;;;;5012844;28;20188;-72
2024/01/07 10:21:27;;;;;;;1999.90;999.90;;;2.20;99.90;;;;;;5012811;28;20404;-73
2024/01/07 10:24:12;;;;;;;1999.90;999.90;;;2.20;99.90;;;;;;5012441;28;20200;-73
2024/01/07 10:26:39;;;;;;;1999.90;999.90;;;2.20;99.90;;;;;;5012437;28;20204;-73
2024/01/07 10:29:06;;;;;;;1999.90;999.90;;;2.30;99.90;;;;;;5012824;28;20242;-72
2024/01/07 10:31:35;;;;;;;1999.90;999.90;;;2.30;99.90;;;;;;5012656;28;20184;-73
2024/01/07 10:34:01;;;;;;;1999.90;999.90;;;2.30;99.90;;;;;;5012242;28;20196;-73
2024/01/07 10:36:27;;;;;;;1999.90;999.90;;;;;;;;;;5012452;28;20200;-73
2024/01/07 10:38:54;;;;;;;1999.90;999.90;;;2.30;99.90;;;;;;5012519;28;20296;-75
2024/01/07 10:41:20;;;;;;;1999.90;999.90;;;2.30;99.90;;;;;;5012534;28;20165;-74
2024/01/07 10:43:49;;;;;;;1999.90;999.90;;;2.30;99.90;;;;;;5012093;28;20332;-74
2024/01/07 10:46:16;;;;;;;1999.90;999.90;;;2.30;99.90;;;;;;5012760;28;20483;-74
2024/01/07 10:49:07;;;;;;;1999.90;999.90;;;2.40;99.90;;;;;;5012483;28;20173;-75
2024/01/07 10:51:34;;;;;;;1999.90;999.90;;;2.40;99.90;;;;;;5012382;28;20165;-74
2024/01/07 10:54:00;;;;;;;1999.90;999.90;;;2.50;99.90;;;;;;5012213;28;20206;-75
2024/01/07 10:56:38;;;;;;;1999.90;999.90;;;2.40;99.90;;;;;;5013482;28;20176;-75
2024/01/07 10:59:04;;;;;;;1999.90;999.90;;;2.20;99.90;;;;;;5014262;28;20173;-75
2024/01/07 11:01:29;;;;;;;1999.90;999.90;;;2.30;99.90;;;;;;5013295;28;20662;-75
2024/01/07 11:04:39;;;;;;;1999.90;999.90;;;2.20;99.90;;;;;;5012464;28;20519;-75
2024/01/07 11:07:15;;;;;;;1999.90;999.90;;;2.20;99.90;;;;;;4952221;28;20637;-75
2024/01/07 11:10:01;;;;;;;1999.90;999.90;;;2.20;99.90;;;;;;4952588;29;20178;-75
2024/01/07 11:12:27;;;;;;;1999.90;999.90;;;2.10;99.90;;;;;;4992729;28;20204;-72
2024/01/07 11:14:52;;;;;;;1999.90;999.90;;;2.20;99.90;;;;;;5013051;28;20176;-74
2024/01/07 11:17:39;;;;;;;1999.90;999.90;;;2.20;99.90;;;;;;5012778;28;20489;-73
2024/01/07 11:20:06;;;;;;;1999.90;999.90;;;2.20;99.90;;;;;;5013047;28;20423;-75
2024/01/07 11:22:32;;;;;;;1999.90;999.90;;;2.20;99.90;;;;;;5012532;28;20236;-74
2024/01/07 11:24:59;;;;;;;1999.90;999.90;;;2.20;99.90;;;;;;5014594;28;20238;-75
2024/01/07 11:27:28;;;;;;;1999.90;999.90;;;2.10;99.90;;;;;;5017756;28;20256;-75
2024/01/07 11:29:58;;;;;;;1999.90;999.90;;;2.20;99.90;;;;;;5017658;28;20240;-75
2024/01/07 11:32:28;;;;;;;1999.90;999.90;;;2.20;99.90;;;;;;5017939;28;20193;-76
2024/01/07 11:34:56;;;;;;;1999.90;999.90;;;2.20;99.90;;;;;;5017377;28;20183;-75
2024/01/07 11:37:22;;;;;;;1999.90;999.90;;;2.30;99.90;;;;;;5017085;28;20536;-75
2024/01/07 11:39:50;;;;;;;1999.90;999.90;;;2.20;99.90;;;;;;5017398;28;20244;-75
2024/01/07 11:42:16;;;;;;;1999.90;999.90;;;2.30;99.90;;;;;;5017388;28;20189;-75
2024/01/07 11:44:52;;;;;;;1999.90;999.90;;;2.30;99.90;;;;;;5017206;28;20264;-75
2024/01/07 11:47:18;;;;;;;1999.90;999.90;;;2.20;99.90;;;;;;5016974;28;20403;-75
2024/01/07 11:49:44;;;;;;;1999.90;999.90;;;2.30;99.90;;;;;;5017509;28;20165;-75
2024/01/07 11:52:10;;;;;;;1999.90;999.90;;;2.30;99.90;;;;;;5017377;28;20193;-75
2024/01/07 11:54:39;;;;;;;1999.90;999.90;;;2.40;99.90;;;;;;5017023;28;20169;-75
2024/01/07 11:57:09;;;;;;;1999.90;999.90;;;2.40;99.90;;;;;;5016630;28;20171;-74
2024/01/07 11:59:36;;;;;;;1999.90;999.90;;;2.40;99.90;;;;;;5016916;28;20669;-75
2024/01/07 12:02:04;;;;;;;1999.90;999.90;;;2.00;99.90;;;;;;5016900;28;20183;-75
2024/01/07 12:04:31;;;;;;;1999.90;999.90;;;2.30;99.90;;;;;;5016740;28;20174;-75
2024/01/07 12:06:57;;;;;;;1999.90;999.90;;;2.30;99.90;;;;;;5016895;28;20204;-75
2024/01/07 12:09:22;;;;;;;1999.90;999.90;;;2.20;99.90;;;;;;5016633;28;20644;-75